createdAt,value
2022-08-22T00:01:55.800Z,98986.38
2022-08-22T00:02:48.063Z,99034.43
2022-08-22T00:02:58.815Z,99009.50
2022-08-22T00:02:59.810Z,99036.88
2022-08-22T00:03:03.567Z,99029.41
2022-08-22T00:04:57.474Z,98990.02
2022-08-22T00:07:30.620Z,98987.17
2022-08-22T00:10:04.340Z,98986.68
2022-08-22T00:13:17.623Z,98986.41
2022-08-22T00:15:52.076Z,98990.01
2022-08-22T00:18:35.302Z,98988.42
2022-08-22T00:21:22.421Z,98987.75
2022-08-22T00:24:17.627Z,98991.88
2022-08-22T00:27:10.587Z,98986.21
2022-08-22T00:29:46.026Z,98987.64
2022-08-22T00:32:13.115Z,98985.19
2022-08-22T00:34:51.282Z,98985.60
2022-08-22T00:37:32.667Z,98979.81
2022-08-22T00:40:09.059Z,98984.14
2022-08-22T00:43:15.811Z,98981.59
2022-08-22T00:46:01.703Z,98985.58
2022-08-22T00:48:43.700Z,98984.95
2022-08-22T00:51:53.037Z,98987.84
2022-08-22T00:54:44.763Z,98994.38
2022-08-22T00:57:40.278Z,98991.45
2022-08-22T01:00:13.773Z,98991.67
2022-08-22T01:02:59.972Z,98994.06
2022-08-22T01:05:42.175Z,98996.60
2022-08-22T01:08:34.049Z,98995.38
2022-08-22T01:11:20.034Z,98999.55
2022-08-22T01:14:04.348Z,98996.16
2022-08-22T01:17:03.652Z,98994.50
2022-08-22T01:19:53.034Z,98996.80
2022-08-22T01:22:50.280Z,98996.46
2022-08-22T01:25:32.626Z,99000.66
2022-08-22T01:28:16.667Z,98999.45
2022-08-22T01:31:08.810Z,98995.16
2022-08-22T01:34:13.398Z,98995.59
2022-08-22T01:36:40.755Z,99003.72
2022-08-22T01:39:37.158Z,99008.68
2022-08-22T01:42:15.175Z,99001.91
2022-08-22T01:45:06.243Z,99004.17
2022-08-22T01:47:47.523Z,99006.48
2022-08-22T01:50:21.593Z,99003.84
2022-08-22T01:53:11.884Z,99004.97
2022-08-22T01:56:00.657Z,99000.75
2022-08-22T01:58:33.494Z,99006.60
2022-08-22T02:01:13.485Z,99004.67
2022-08-22T02:04:14.850Z,99004.68
2022-08-22T02:07:06.469Z,99010.77
2022-08-22T02:10:07.903Z,99009.73
2022-08-22T02:12:41.589Z,99010.90
2022-08-22T02:15:14.869Z,99010.36
2022-08-22T02:18:01.029Z,99010.20
2022-08-22T02:21:02.653Z,99010.52
2022-08-22T02:23:56.734Z,99014.73
2022-08-22T02:27:04.442Z,99014.36
2022-08-22T02:29:42.954Z,99011.40
2022-08-22T02:32:28.838Z,99013.80
2022-08-22T02:34:55.930Z,99010.27
2022-08-22T02:37:37.477Z,99006.85
2022-08-22T02:40:27.540Z,99008.71
2022-08-22T02:43:09.560Z,99009.23
2022-08-22T02:46:08.045Z,99013.47
2022-08-22T02:49:02.667Z,99019.16
2022-08-22T02:51:48.439Z,99021.33
2022-08-22T02:54:37.490Z,99019.36
2022-08-22T02:57:39.714Z,99022.16
2022-08-22T03:00:31.720Z,99021.31
2022-08-22T03:03:00.070Z,99024.71
2022-08-22T03:05:41.966Z,99030.20
2022-08-22T03:08:23.348Z,99031.63
2022-08-22T03:11:12.617Z,99035.36
2022-08-22T03:14:17.451Z,99033.31
2022-08-22T03:17:21.199Z,99031.85
2022-08-22T03:20:20.873Z,99028.80
2022-08-22T03:23:02.846Z,99031.64
2022-08-22T03:25:46.201Z,99035.98
2022-08-22T03:28:23.678Z,99042.19
2022-08-22T03:31:17.288Z,99038.28
2022-08-22T03:33:45.788Z,99040.88
2022-08-22T03:36:15.704Z,99043.15
2022-08-22T03:39:04.194Z,99051.04
2022-08-22T03:41:47.278Z,99051.40
2022-08-22T03:44:17.474Z,99052.30
2022-08-22T03:47:13.321Z,99055.02
2022-08-22T03:50:10.969Z,99054.70
2022-08-22T03:53:15.338Z,99055.17
2022-08-22T03:56:05.277Z,99051.23
2022-08-22T03:58:49.656Z,99048.34
2022-08-22T04:01:31.919Z,99058.71
2022-08-22T04:04:25.181Z,99064.65
2022-08-22T04:07:33.314Z,99070.46
2022-08-22T04:10:00.633Z,99073.58
2022-08-22T04:12:49.711Z,99075.92
2022-08-22T04:15:54.444Z,99078.81
2022-08-22T04:18:35.240Z,99086.94
2022-08-22T04:21:23.948Z,99091.30
2022-08-22T04:24:24.488Z,99089.17
2022-08-22T04:27:03.860Z,99085.61
2022-08-22T04:29:36.875Z,99086.77
2022-08-22T04:32:37.708Z,99092.27
2022-08-22T04:35:34.210Z,99088.06
2022-08-22T04:38:26.825Z,99086.79
2022-08-22T04:41:13.986Z,99087.36
2022-08-22T04:43:50.252Z,99086.44
2022-08-22T04:46:38.905Z,99093.41
2022-08-22T04:49:31.448Z,99099.23
2022-08-22T04:52:21.904Z,99097.67
2022-08-22T04:55:30.630Z,99094.36
2022-08-22T04:58:23.218Z,99092.92
2022-08-22T05:01:12.097Z,99091.77
2022-08-22T05:03:46.043Z,99099.45
2022-08-22T05:06:19.361Z,99098.32
2022-08-22T05:08:53.799Z,99099.98
2022-08-22T05:11:23.831Z,99108.94
2022-08-22T05:14:00.245Z,99108.58
2022-08-22T05:16:40.852Z,99110.43
2022-08-22T05:19:23.007Z,99106.11
2022-08-22T05:21:56.145Z,99112.38
2022-08-22T05:24:28.102Z,99113.88
2022-08-22T05:27:01.117Z,99114.91
2022-08-22T05:29:31.558Z,99113.69
2022-08-22T05:32:03.806Z,99116.10
2022-08-22T05:34:42.296Z,99122.36
2022-08-22T05:37:18.028Z,99116.70
2022-08-22T05:39:59.721Z,99115.30
2022-08-22T05:42:31.815Z,99109.48
2022-08-22T05:45:03.342Z,99114.71
2022-08-22T05:47:45.649Z,99114.06
2022-08-22T05:50:18.554Z,99112.78
2022-08-22T05:52:59.197Z,99109.61
2022-08-22T05:55:41.608Z,99115.34
2022-08-22T05:58:27.603Z,99108.20
2022-08-22T06:01:06.404Z,99111.42
2022-08-22T06:04:12.059Z,99117.63
2022-08-22T06:06:55.102Z,99122.75
2022-08-22T06:09:37.334Z,99121.98
2022-08-22T06:12:21.776Z,99115.93
2022-08-22T06:15:29.048Z,99117.80
2022-08-22T06:18:02.704Z,99116.27
2022-08-22T06:20:46.153Z,99118.99
2022-08-22T06:23:21.841Z,99119.67
2022-08-22T06:25:52.858Z,99118.97
2022-08-22T06:28:28.132Z,99117.06
2022-08-22T06:30:57.854Z,99113.84
2022-08-22T06:33:31.397Z,99112.20
2022-08-22T06:36:26.440Z,99111.48
2022-08-22T06:39:23.559Z,99115.28
2022-08-22T06:42:14.507Z,99108.13
2022-08-22T06:44:45.730Z,99102.74
2022-08-22T06:47:19.447Z,99108.93
2022-08-22T06:49:47.173Z,99114.17
2022-08-22T06:52:22.622Z,99115.48
2022-08-22T06:54:57.475Z,99114.19
2022-08-22T06:57:36.099Z,99113.82
2022-08-22T07:00:10.824Z,99108.05
2022-08-22T07:02:48.896Z,99100.27
2022-08-22T07:05:23.094Z,99105.30
2022-08-22T07:07:52.405Z,99103.38
2022-08-22T07:10:22.853Z,99101.14
2022-08-22T07:12:54.355Z,99098.88
2022-08-22T07:15:35.580Z,99102.84
2022-08-22T07:18:25.175Z,99104.77
2022-08-22T07:20:57.768Z,99101.66
2022-08-22T07:23:37.395Z,99105.27
2022-08-22T07:26:22.809Z,99102.38
2022-08-22T07:28:58.365Z,99100.67
2022-08-22T07:31:29.071Z,99103.44
2022-08-22T07:34:19.273Z,99100.70
2022-08-22T07:37:00.224Z,99103.91
2022-08-22T07:39:38.628Z,99101.27
2022-08-22T07:42:17.685Z,99101.61
2022-08-22T07:44:47.857Z,99091.49
2022-08-22T07:47:26.293Z,99094.77
2022-08-22T07:50:03.957Z,99095.39
2022-08-22T07:52:40.763Z,99100.51
2022-08-22T07:55:22.965Z,99099.55
2022-08-22T07:58:03.880Z,99095.84
2022-08-22T08:00:32.647Z,99100.41
2022-08-22T08:03:04.866Z,99095.58
2022-08-22T08:05:36.181Z,99094.61
2022-08-22T08:08:09.308Z,99093.95
2022-08-22T08:10:42.930Z,99095.09
2022-08-22T08:13:14.974Z,99095.07
2022-08-22T08:15:46.069Z,99098.92
2022-08-22T08:18:21.928Z,99093.89
2022-08-22T08:21:00.257Z,99100.60
2022-08-22T08:23:31.563Z,99096.00
2022-08-22T08:26:20.637Z,99094.19
2022-08-22T08:28:51.550Z,99091.75
2022-08-22T08:31:45.310Z,99085.30
2022-08-22T08:34:18.482Z,99089.16
2022-08-22T08:37:04.179Z,99086.33
2022-08-22T08:39:41.030Z,99093.31
2022-08-22T08:42:30.064Z,99091.59
2022-08-22T08:45:15.693Z,99091.23
2022-08-22T08:48:01.308Z,99095.88
2022-08-22T08:50:56.672Z,99092.17
2022-08-22T08:53:43.217Z,99086.52
2022-08-22T08:56:34.085Z,99088.44
2022-08-22T08:59:18.836Z,99096.63
2022-08-22T09:02:05.544Z,99094.56
2022-08-22T09:05:07.868Z,99091.02
2022-08-22T09:07:44.219Z,99094.89
2022-08-22T09:10:42.292Z,99093.72
2022-08-22T09:13:55.428Z,99094.25
2022-08-22T09:16:45.575Z,99090.31
2022-08-22T09:19:40.735Z,99090.02
2022-08-22T09:22:14.432Z,99095.00
2022-08-22T09:25:12.262Z,99089.61
2022-08-22T09:28:08.417Z,99083.34
2022-08-22T09:31:48.088Z,99087.18
2022-08-22T09:34:27.190Z,99087.95
2022-08-22T09:37:26.142Z,99082.56
2022-08-22T09:40:04.869Z,99083.33
2022-08-22T09:43:06.395Z,99080.44
2022-08-22T09:46:02.088Z,99083.34
2022-08-22T09:48:35.763Z,99085.92
2022-08-22T09:51:32.702Z,99084.63
2022-08-22T09:54:32.828Z,99084.14
2022-08-22T09:57:09.414Z,99084.14
2022-08-22T10:00:17.568Z,99082.73
2022-08-22T10:03:15.649Z,99083.98
2022-08-22T10:05:46.569Z,99082.86
2022-08-22T10:08:51.150Z,99085.93
2022-08-22T10:11:26.158Z,99078.51
2022-08-22T10:14:04.883Z,99083.80
2022-08-22T10:16:55.504Z,99084.96
2022-08-22T10:19:55.078Z,99093.85
2022-08-22T10:22:41.512Z,99092.73
2022-08-22T10:25:33.584Z,99088.30
2022-08-22T10:28:16.902Z,99096.33
2022-08-22T10:31:20.058Z,99097.16
2022-08-22T10:34:05.628Z,99093.82
2022-08-22T10:36:43.248Z,99091.38
2022-08-22T10:39:15.262Z,99093.82
2022-08-22T10:42:16.956Z,99094.93
2022-08-22T10:45:23.653Z,99093.80
2022-08-22T10:47:54.398Z,99090.05
2022-08-22T10:50:36.527Z,99091.75
2022-08-22T10:53:35.576Z,99083.05
2022-08-22T10:56:16.196Z,99078.50
2022-08-22T10:59:13.766Z,99083.76
2022-08-22T11:01:59.796Z,99084.65
2022-08-22T11:04:42.293Z,99086.27
2022-08-22T11:07:29.172Z,99080.58
2022-08-22T11:10:09.264Z,99089.02
2022-08-22T11:12:44.567Z,99083.77
2022-08-22T11:15:40.977Z,99084.45
2022-08-22T11:18:18.106Z,99094.59
2022-08-22T11:20:55.013Z,99088.15
2022-08-22T11:23:40.845Z,99087.50
2022-08-22T11:26:29.908Z,99090.12
2022-08-22T11:29:13.392Z,99092.64
2022-08-22T11:31:51.654Z,99089.67
2022-08-22T11:34:40.658Z,99090.98
2022-08-22T11:37:42.526Z,99092.66
2022-08-22T11:40:20.577Z,99099.30
2022-08-22T11:42:51.517Z,99097.42
2022-08-22T11:45:25.071Z,99088.49
2022-08-22T11:48:30.669Z,99085.91
2022-08-22T11:51:13.713Z,99082.61
2022-08-22T11:53:49.647Z,99090.04
2022-08-22T11:56:31.496Z,99081.75
2022-08-22T11:59:14.960Z,99080.27
2022-08-22T12:01:55.590Z,99086.14
2022-08-22T12:04:44.402Z,99082.81
2022-08-22T12:07:27.037Z,99076.98
2022-08-22T12:10:13.852Z,99078.39
2022-08-22T12:12:51.329Z,99080.10
2022-08-22T12:15:33.450Z,99078.89
2022-08-22T12:18:21.784Z,99079.06
2022-08-22T12:21:09.085Z,99072.85
2022-08-22T12:23:58.350Z,99066.63
2022-08-22T12:26:37.028Z,99078.70
2022-08-22T12:29:16.919Z,99079.29
2022-08-22T12:32:28.589Z,99082.66
2022-08-22T12:35:14.910Z,99071.47
2022-08-22T12:38:27.867Z,99086.63
2022-08-22T12:41:02.894Z,99073.27
2022-08-22T12:43:58.114Z,99087.27
2022-08-22T12:47:05.165Z,99073.88
2022-08-22T12:49:54.234Z,99077.88
2022-08-22T12:52:33.486Z,99077.21
2022-08-22T12:55:12.724Z,99071.67
2022-08-22T12:57:46.208Z,99074.56
2022-08-22T13:00:34.693Z,99069.09
2022-08-22T13:03:10.045Z,99069.26
2022-08-22T13:05:44.344Z,99076.15
2022-08-22T13:08:35.856Z,99079.55
2022-08-22T13:11:23.268Z,99080.91
2022-08-22T13:14:00.601Z,99072.82
2022-08-22T13:16:39.077Z,99066.03
2022-08-22T13:19:13.583Z,99069.05
2022-08-22T13:22:09.004Z,99069.27
2022-08-22T13:24:51.837Z,99077.09
2022-08-22T13:27:36.782Z,99082.26
2022-08-22T13:30:13.540Z,99080.94
2022-08-22T13:32:51.380Z,99074.27
2022-08-22T13:35:42.199Z,99074.96
2022-08-22T13:38:17.532Z,99081.23
2022-08-22T13:40:56.031Z,99089.89
2022-08-22T13:43:37.183Z,99081.05
2022-08-22T13:46:11.015Z,99081.76
2022-08-22T13:49:00.831Z,99084.95
2022-08-22T13:51:57.763Z,99093.10
2022-08-22T13:55:00.288Z,99090.22
2022-08-22T13:57:38.037Z,99091.15
2022-08-22T14:00:11.501Z,99094.54
2022-08-22T14:02:59.430Z,99094.32
2022-08-22T14:05:53.225Z,99089.49
2022-08-22T14:08:20.761Z,99088.39
2022-08-22T14:11:03.919Z,99090.14
2022-08-22T14:13:48.354Z,99088.12
2022-08-22T14:16:39.834Z,99091.90
2022-08-22T14:19:08.752Z,99093.68
2022-08-22T14:21:45.686Z,99096.52
2022-08-22T14:24:29.157Z,99094.80
2022-08-22T14:27:29.128Z,99091.52
2022-08-22T14:30:01.661Z,99096.09
2022-08-22T14:32:49.289Z,99095.20
2022-08-22T14:35:37.518Z,99095.27
2022-08-22T14:38:33.286Z,99097.18
2022-08-22T14:41:14.028Z,99102.06
2022-08-22T14:44:24.109Z,99098.58
2022-08-22T14:47:01.383Z,99096.59
2022-08-22T14:49:59.090Z,99097.94
2022-08-22T14:52:34.271Z,99102.30
2022-08-22T14:55:26.172Z,99111.30
2022-08-22T14:57:57.802Z,99101.78
2022-08-22T15:00:36.203Z,99102.75
2022-08-22T15:03:29.004Z,99103.67
2022-08-22T15:06:00.480Z,99099.38
2022-08-22T15:08:32.989Z,99105.01
2022-08-22T15:11:33.557Z,99106.80
2022-08-22T15:14:29.932Z,99099.09
2022-08-22T15:17:01.698Z,99112.48
2022-08-22T15:19:43.084Z,99110.30
2022-08-22T15:22:25.922Z,99114.98
2022-08-22T15:25:02.693Z,99103.42
2022-08-22T15:27:33.922Z,99111.95
2022-08-22T15:30:05.274Z,99115.60
2022-08-22T15:32:41.739Z,99116.00
2022-08-22T15:35:17.800Z,99113.30
2022-08-22T15:38:09.042Z,99110.39
2022-08-22T15:40:44.322Z,99120.50
2022-08-22T15:43:42.201Z,99108.57
2022-08-22T15:46:17.827Z,99114.93
2022-08-22T15:49:06.536Z,99116.58
2022-08-22T15:51:43.272Z,99116.27
2022-08-22T15:54:24.963Z,99115.59
2022-08-22T15:56:53.278Z,99111.84
2022-08-22T15:59:23.413Z,99120.64
2022-08-22T16:01:57.308Z,99120.58
2022-08-22T16:04:40.446Z,99127.99
2022-08-22T16:07:23.599Z,99127.67
2022-08-22T16:09:55.405Z,99120.35
2022-08-22T16:12:39.798Z,99124.30
2022-08-22T16:15:29.964Z,99127.52
2022-08-22T16:17:58.023Z,99128.73
2022-08-22T16:20:25.078Z,99127.48
2022-08-22T16:22:58.281Z,99126.95
2022-08-22T16:25:50.684Z,99131.56
2022-08-22T16:28:31.652Z,99130.70
2022-08-22T16:31:25.014Z,99134.08
2022-08-22T16:33:52.188Z,99129.98
2022-08-22T16:36:38.041Z,99132.94
2022-08-22T16:39:22.726Z,99136.20
2022-08-22T16:41:49.794Z,99131.30
2022-08-22T16:44:29.039Z,99136.39
2022-08-22T16:47:18.912Z,99132.20
2022-08-22T16:49:52.223Z,99133.50
2022-08-22T16:52:25.416Z,99136.61
2022-08-22T16:54:55.962Z,99142.33
2022-08-22T16:57:27.539Z,99145.54
2022-08-22T17:00:13.329Z,99146.58
2022-08-22T17:03:06.888Z,99148.38
2022-08-22T17:06:09.506Z,99148.39
2022-08-22T17:08:58.539Z,99142.66
2022-08-22T17:11:50.840Z,99152.55
2022-08-22T17:14:32.606Z,99155.33
2022-08-22T17:17:35.149Z,99158.20
2022-08-22T17:20:11.165Z,99157.08
2022-08-22T17:23:03.038Z,99162.91
2022-08-22T17:25:36.588Z,99161.71
2022-08-22T17:28:35.122Z,99161.40
2022-08-22T17:31:26.252Z,99163.02
2022-08-22T17:34:14.387Z,99166.39
2022-08-22T17:37:09.410Z,99169.20
2022-08-22T17:39:56.029Z,99168.85
2022-08-22T17:42:42.041Z,99166.58
2022-08-22T17:45:18.148Z,99170.27
2022-08-22T17:48:05.470Z,99168.92
2022-08-22T17:50:46.359Z,99166.08
2022-08-22T17:53:45.017Z,99170.20
2022-08-22T17:56:28.327Z,99169.45
2022-08-22T17:59:05.598Z,99172.77
2022-08-22T18:01:50.255Z,99175.68
2022-08-22T18:04:46.857Z,99176.54
2022-08-22T18:07:14.607Z,99175.11
2022-08-22T18:09:57.067Z,99177.98
2022-08-22T18:12:40.384Z,99174.90
2022-08-22T18:15:34.153Z,99177.42
2022-08-22T18:18:09.570Z,99175.41
2022-08-22T18:21:03.279Z,99174.31
2022-08-22T18:23:44.271Z,99167.07
2022-08-22T18:26:42.597Z,99168.63
2022-08-22T18:29:16.346Z,99167.39
2022-08-22T18:31:52.430Z,99166.48
2022-08-22T18:34:31.794Z,99166.63
2022-08-22T18:37:26.096Z,99164.60
2022-08-22T18:40:01.300Z,99168.27
2022-08-22T18:42:37.092Z,99169.20
2022-08-22T18:45:04.595Z,99164.90
2022-08-22T18:47:34.700Z,99162.09
2022-08-22T18:50:32.614Z,99166.04
2022-08-22T18:53:00.310Z,99169.78
2022-08-22T18:55:27.844Z,99174.13
2022-08-22T18:58:18.121Z,99174.41
2022-08-22T19:01:06.272Z,99171.87
2022-08-22T19:04:03.976Z,99171.30
2022-08-22T19:06:45.295Z,99170.85
2022-08-22T19:09:32.343Z,99167.90
2022-08-22T19:12:19.622Z,99168.65
2022-08-22T19:15:14.984Z,99168.02
2022-08-22T19:17:45.097Z,99165.16
2022-08-22T19:20:56.630Z,99165.09
2022-08-22T19:23:32.933Z,99174.14
2022-08-22T19:26:24.675Z,99169.02
2022-08-22T19:29:30.491Z,99174.26
2022-08-22T19:32:02.139Z,99164.74
2022-08-22T19:34:39.899Z,99165.75
2022-08-22T19:37:30.729Z,99164.91
2022-08-22T19:40:12.082Z,99166.11
2022-08-22T19:42:44.205Z,99164.20
2022-08-22T19:45:29.203Z,99162.27
2022-08-22T19:48:15.716Z,99164.13
2022-08-22T19:50:44.040Z,99164.25
2022-08-22T19:53:40.185Z,99168.37
2022-08-22T19:56:20.421Z,99166.23
2022-08-22T19:59:02.812Z,99169.48
2022-08-22T20:01:56.332Z,99161.44
2022-08-22T20:04:39.348Z,99162.27
2022-08-22T20:07:21.484Z,99165.05
2022-08-22T20:10:19.089Z,99167.05
2022-08-22T20:12:55.561Z,99168.17
2022-08-22T20:15:27.450Z,99170.64
2022-08-22T20:20:59.428Z,99173.39
2022-08-22T20:23:31.724Z,99165.95
2022-08-22T20:25:59.880Z,99162.34
2022-08-22T20:28:30.006Z,99160.70
2022-08-22T20:32:15.135Z,99167.68
2022-08-22T20:34:43.376Z,99169.56
2022-08-22T20:37:40.273Z,99174.80
2022-08-22T20:40:55.261Z,99170.98
2022-08-22T20:43:24.117Z,99176.06
2022-08-22T20:46:33.387Z,99174.73
2022-08-22T20:49:01.364Z,99175.66
2022-08-22T20:51:31.706Z,99175.72
2022-08-22T20:54:10.091Z,99181.66
2022-08-22T20:56:53.633Z,99179.29
2022-08-22T20:59:41.665Z,99184.23
2022-08-22T21:02:32.831Z,99182.94
2022-08-22T21:05:04.405Z,99177.47
2022-08-22T21:07:35.692Z,99177.52
2022-08-22T21:10:27.316Z,99183.20
2022-08-22T21:13:11.647Z,99185.13
2022-08-22T21:15:53.114Z,99179.65
2022-08-22T21:18:36.131Z,99178.81
2022-08-22T21:21:17.340Z,99180.49
2022-08-22T21:23:51.619Z,99180.75
2022-08-22T21:26:28.594Z,99181.46
2022-08-22T21:29:06.961Z,99178.66
2022-08-22T21:31:47.621Z,99181.63
2022-08-22T21:34:27.578Z,99183.42
2022-08-22T21:36:59.833Z,99181.20
2022-08-22T21:39:34.234Z,99179.89
2022-08-22T21:42:01.274Z,99177.36
2022-08-22T21:44:32.318Z,99172.37
2022-08-22T21:47:33.258Z,99176.21
2022-08-22T21:50:26.120Z,99175.23
2022-08-22T21:52:56.140Z,99174.42
2022-08-22T21:55:29.686Z,99171.20
2022-08-22T21:58:09.053Z,99170.15
2022-08-22T22:00:48.697Z,99166.02
2022-08-22T22:03:20.394Z,99165.31
2022-08-22T22:05:53.109Z,99163.06
2022-08-22T22:08:20.477Z,99163.30
2022-08-22T22:10:49.279Z,99159.44
2022-08-22T22:13:19.170Z,99158.90
2022-08-22T22:15:48.972Z,99157.73
2022-08-22T22:18:19.692Z,99160.96
2022-08-22T22:20:48.343Z,99159.39
2022-08-22T22:23:15.464Z,99157.77
2022-08-22T22:25:44.291Z,99157.10
2022-08-22T22:28:33.957Z,99156.91
2022-08-22T22:31:01.344Z,99156.77
2022-08-22T22:33:32.072Z,99161.95
2022-08-22T22:36:05.338Z,99153.99
2022-08-22T22:38:32.912Z,99159.06
2022-08-22T22:41:00.075Z,99158.52
2022-08-22T22:43:28.154Z,99159.85
2022-08-22T22:45:55.267Z,99157.00
2022-08-22T22:48:24.858Z,99151.39
2022-08-22T22:50:55.270Z,99153.23
2022-08-22T22:53:33.838Z,99157.92
2022-08-22T22:56:06.188Z,99163.08
2022-08-22T22:58:35.635Z,99163.11
2022-08-22T23:01:11.362Z,99162.83
2022-08-22T23:03:38.839Z,99159.56
2022-08-22T23:06:15.980Z,99164.58
2022-08-22T23:08:43.262Z,99159.73
2022-08-22T23:11:18.048Z,99162.34
2022-08-22T23:13:45.679Z,99158.04
2022-08-22T23:16:16.646Z,99163.25
2022-08-22T23:18:44.469Z,99161.17
2022-08-22T23:21:20.406Z,99159.73
2022-08-22T23:23:48.710Z,99159.31
2022-08-22T23:26:16.491Z,99158.08
2022-08-22T23:28:44.433Z,99154.63
2022-08-22T23:31:19.044Z,99155.16
2022-08-22T23:33:46.696Z,99157.22
2022-08-22T23:36:18.924Z,99159.46
2022-08-22T23:38:47.224Z,99156.48
2022-08-22T23:41:17.974Z,99157.80
2022-08-22T23:43:46.855Z,99158.94
2022-08-22T23:46:16.396Z,99160.55
2022-08-22T23:48:44.370Z,99157.23
2022-08-22T23:51:13.328Z,99160.17
2022-08-22T23:53:41.731Z,99153.80
2022-08-22T23:56:09.865Z,99155.98
2022-08-22T23:58:49.076Z,99153.45
